Time;durP1;ratioP1;P1;durP2;ratioP2;P2;SDS_P1;SDS_P2;PMS_P1;PMS_P2;Temp;Humidity;BMP_temperature;BMP_pressure;BME280_temperature;BME280_humidity;BME280_pressure;Samples;Min_cycle;Max_cycle;Signal;HPM_P1;HPM_P2
2022/06/19 05:33:15;;;;;;;;;7.00;5.50;;;;;35.42;25.20;100335.19;5892119;23;46582;-75
2022/06/19 05:35:40;;;;;;;;;8.00;6.67;;;;;35.57;24.84;100345.78;4894413;28;46367;-76
2022/06/19 05:38:06;;;;;;;;;7.33;6.67;;;;;35.69;25.39;100323.44;4898905;29;50506;-75
2022/06/19 05:40:31;;;;;;;;;11.00;6.67;;;;;35.85;25.36;100327.53;4905697;28;45311;-75
2022/06/19 05:42:57;;;;;;;;;8.00;6.00;;;;;35.96;25.06;100326.53;4908206;28;49570;-75
2022/06/19 05:45:23;;;;;;;;;6.67;6.67;;;;;36.04;25.09;100365.31;4908556;28;45584;-75
2022/06/19 05:47:48;;;;;;;;;6.67;5.00;;;;;36.01;24.72;100346.28;4925503;28;45358;-75
2022/06/19 05:50:13;;;;;;;;;10.00;8.00;;;;;36.16;25.06;100336.53;4905008;28;45461;-75
2022/06/19 05:52:39;;;;;;;;;9.33;6.00;;;;;36.47;24.78;100388.84;4907215;28;46425;-76
2022/06/19 05:55:06;;;;;;;;;8.33;5.67;;;;;36.38;23.94;100384.22;4908023;28;45481;-75
2022/06/19 05:57:31;;;;;;;;;8.00;7.00;;;;;36.32;24.40;100384.81;4898776;28;45356;-75
2022/06/19 05:59:56;;;;;;;;;4.00;4.00;;;;;36.51;24.60;100390.31;4899219;28;45412;-75
2022/06/19 06:02:23;;;;;;;;;5.00;5.00;;;;;36.43;23.87;100378.22;4898969;28;45445;-75
2022/06/19 06:04:48;;;;;;;;;8.33;6.00;;;;;36.46;24.11;100370.53;4885657;28;45418;-75
2022/06/19 06:07:14;;;;;;;;;5.00;4.00;;;;;36.45;24.10;100337.53;4891916;29;45369;-76
2022/06/19 06:09:39;;;;;;;;;6.00;5.00;;;;;36.45;24.40;100302.47;4893871;28;45567;-76
2022/06/19 06:12:05;;;;;;;;;5.00;4.00;;;;;36.28;24.04;100293.03;4913868;28;46190;-76
2022/06/19 06:14:31;;;;;;;;;7.00;5.00;;;;;36.36;24.26;100292.34;4909515;28;45236;-76
2022/06/19 06:16:56;;;;;;;;;5.00;4.00;;;;;36.49;24.20;100300.28;4891759;28;45252;-76
2022/06/19 06:19:22;;;;;;;;;7.67;5.00;;;;;36.45;24.29;100341.16;4897231;29;45393;-76
2022/06/19 06:21:47;;;;;;;;;10.67;5.00;;;;;36.53;23.79;100352.31;4898427;29;45504;-76
2022/06/19 06:24:14;;;;;;;;;6.00;6.00;;;;;36.57;24.23;100361.19;4901881;28;45455;-76
2022/06/19 06:26:40;;;;;;;;;4.67;3.00;;;;;36.50;24.14;100347.09;4902207;28;45430;-79
2022/06/19 06:29:07;;;;;;;;;6.67;5.33;;;;;36.78;24.02;100396.94;4902048;28;45474;-76
2022/06/19 06:31:33;;;;;;;;;7.33;4.67;;;;;36.72;23.99;100425.16;4901136;28;46252;-76
2022/06/19 06:33:58;;;;;;;;;7.00;7.00;;;;;36.62;23.80;100455.56;4890243;29;45400;-76
2022/06/19 06:36:24;;;;;;;;;8.00;6.00;;;;;36.54;23.71;100449.91;4896208;29;45414;-75
2022/06/19 06:38:49;;;;;;;;;9.67;6.67;;;;;36.69;24.27;100492.63;4901580;28;45338;-75
2022/06/19 06:41:15;;;;;;;;;4.00;4.00;;;;;36.61;23.88;100506.34;4901802;28;46009;-76
2022/06/19 06:43:43;;;;;;;;;7.00;5.00;;;;;36.51;24.39;100464.00;4901843;28;45381;-76
2022/06/19 06:46:15;;;;;;;;;9.67;5.33;;;;;36.49;23.84;100479.88;4901611;28;45433;-77
2022/06/19 06:48:41;;;;;;;;;6.00;6.00;;;;;36.29;24.28;100435.66;4901239;28;45458;-76
2022/06/19 06:51:11;;;;;;;;;7.00;5.67;;;;;36.39;24.05;100439.31;4901354;29;46425;-76
2022/06/19 06:53:37;;;;;;;;;6.67;6.67;;;;;36.22;24.11;100373.75;4901012;28;45532;-76
2022/06/19 06:56:03;;;;;;;;;10.00;5.67;;;;;36.49;24.62;100367.47;4907422;28;45423;-76
2022/06/19 06:58:29;;;;;;;;;5.33;5.33;;;;;36.37;24.34;100349.31;4900186;29;45363;-77
2022/06/19 07:00:54;;;;;;;;;6.67;6.67;;;;;36.35;24.45;100379.84;4882913;29;46332;-76
2022/06/19 07:03:21;;;;;;;;;6.67;5.67;;;;;36.25;24.46;100378.97;4900591;29;45295;-75
2022/06/19 07:05:46;;;;;;;;;5.67;4.00;;;;;36.39;24.04;100369.38;4897327;28;45442;-77
2022/06/19 07:08:11;;;;;;;;;6.00;5.00;;;;;36.47;23.83;100366.75;4900881;28;49039;-76
2022/06/19 07:10:36;;;;;;;;;7.67;7.67;;;;;36.60;24.70;100393.16;4902447;28;45744;-77
2022/06/19 07:13:02;;;;;;;;;7.67;6.00;;;;;36.70;24.46;100375.53;4935182;28;45414;-78
2022/06/19 07:15:27;;;;;;;;;8.00;6.67;;;;;36.83;24.47;100391.81;4916731;28;45457;-80
2022/06/19 07:17:53;;;;;;;;;6.67;6.67;;;;;36.77;24.56;100312.25;4915307;28;45532;-77
2022/06/19 07:20:19;;;;;;;;;12.33;6.33;;;;;36.74;24.47;100246.22;4898188;29;46602;-76
2022/06/19 07:22:44;;;;;;;;;7.00;6.00;;;;;36.88;23.72;100295.50;4900964;29;45487;-76
2022/06/19 07:25:18;;;;;;;;;7.00;5.33;;;;;37.04;23.93;100360.31;4901110;29;45381;-75
2022/06/19 07:27:44;;;;;;;;;7.00;6.00;;;;;36.91;24.24;100430.66;4882181;29;45396;-76
2022/06/19 07:30:18;;;;;;;;;5.00;3.67;;;;;36.83;23.92;100532.81;4896828;29;45377;-77
2022/06/19 07:32:43;;;;;;;;;9.33;7.33;;;;;36.66;24.11;100569.47;4894682;29;45478;-77
2022/06/19 07:35:09;;;;;;;;;7.67;7.67;;;;;36.71;24.62;100556.06;4900199;28;45453;-77
2022/06/19 07:37:35;;;;;;;;;8.00;8.00;;;;;36.88;24.35;100568.34;4895927;29;45411;-77
2022/06/19 07:40:01;;;;;;;;;6.00;6.00;;;;;36.71;23.75;100562.47;4899751;28;45740;-77
2022/06/19 07:42:26;;;;;;;;;6.00;6.00;;;;;36.64;23.47;100601.88;4899444;28;45339;-78
2022/06/19 07:44:51;;;;;;;;;9.33;5.00;;;;;36.74;24.17;100650.63;4914735;28;45416;-78
2022/06/19 07:50:10;;;;;;;;;7.00;7.00;;;;;36.14;23.96;100603.66;4898950;29;45848;-73
2022/06/19 07:52:46;;;;;;;;;7.00;7.00;;;;;36.04;24.59;100576.03;4894091;28;45449;-73
2022/06/19 07:55:15;;;;;;;;;5.33;5.33;;;;;36.02;24.44;100604.78;4899781;28;45450;-74
2022/06/19 07:57:40;;;;;;;;;5.67;5.67;;;;;36.11;24.48;100605.84;4900709;28;45410;-76
2022/06/19 08:00:17;;;;;;;;;6.33;5.67;;;;;36.20;24.06;100591.19;4899326;29;45712;-77
2022/06/19 08:02:48;;;;;;;;;8.33;5.00;;;;;36.31;23.69;100648.25;4899423;28;45535;-76
2022/06/19 08:05:14;;;;;;;;;7.00;7.00;;;;;36.26;23.44;100643.13;4899952;28;45241;-76
2022/06/19 08:07:40;;;;;;;;;8.33;6.00;;;;;36.28;23.64;100626.41;4881662;28;45589;-76
2022/06/19 08:10:08;;;;;;;;;6.00;5.00;;;;;36.17;23.66;100675.19;4894168;29;46140;-76
2022/06/19 08:12:34;;;;;;;;;6.00;5.00;;;;;35.96;23.89;100666.09;4881180;29;45444;-76
2022/06/19 08:14:59;;;;;;;;;6.67;5.00;;;;;35.78;23.70;100647.41;4879561;29;45303;-76
2022/06/19 08:17:25;;;;;;;;;6.00;6.00;;;;;35.43;24.39;100607.25;4885794;29;45462;-76
2022/06/19 08:19:50;;;;;;;;;4.33;4.33;;;;;35.60;24.48;100624.19;4898441;29;46562;-77
2022/06/19 08:22:16;;;;;;;;;6.00;4.00;;;;;35.59;24.31;100611.41;4899710;28;45522;-76
2022/06/19 08:24:41;;;;;;;;;4.00;4.00;;;;;35.70;23.75;100617.72;4900201;28;45434;-76
2022/06/19 08:27:07;;;;;;;;;5.33;3.67;;;;;35.79;23.93;100615.13;4899101;28;45574;-77
2022/06/19 08:29:34;;;;;;;;;3.00;3.00;;;;;35.83;23.80;100578.88;4890204;28;46208;-76
2022/06/19 08:32:00;;;;;;;;;4.33;3.00;;;;;35.98;23.87;100606.06;4881058;29;45573;-76
2022/06/19 08:34:26;;;;;;;;;5.00;5.00;;;;;36.00;24.32;100546.09;4889204;29;45552;-76
2022/06/19 08:36:52;;;;;;;;;6.33;6.33;;;;;36.13;24.13;100529.25;4898808;28;45522;-76
2022/06/19 08:39:19;;;;;;;;;6.67;5.00;;;;;36.35;24.12;100492.25;4895551;29;45601;-76
2022/06/19 08:41:57;;;;;;;;;8.00;5.00;;;;;36.57;23.57;100489.19;4910689;28;45398;-76
2022/06/19 08:44:48;;;;;;;;;6.33;5.00;;;;;36.66;23.57;100473.59;4910701;28;45391;-76
2022/06/19 08:47:19;;;;;;;;;7.33;5.33;;;;;36.67;23.38;100449.63;4899389;28;45358;-76
2022/06/19 08:50:06;;;;;;;;;8.00;6.00;;;;;36.55;23.82;100415.72;4895225;29;46269;-76
2022/06/19 08:52:52;;;;;;;;;8.00;5.67;;;;;36.28;23.57;100405.44;4899317;28;45253;-76
2022/06/19 08:55:34;;;;;;;;;9.00;5.67;;;;;36.51;24.02;100453.84;4897660;28;45473;-76
2022/06/19 08:58:39;;;;;;;;;9.00;8.00;;;;;36.82;23.91;100461.97;4894740;29;45541;-76
2022/06/19 09:01:07;;;;;;;;;7.67;6.67;;;;;36.97;23.42;100440.25;4908955;28;46870;-76
2022/06/19 09:07:02;;;;;;;;;6.00;5.00;;;;;36.99;23.65;100442.84;4888294;29;45402;-82
2022/06/19 09:09:42;;;;;;;;;8.33;7.67;;;;;36.82;23.68;100448.16;4899083;29;45361;-73
2022/06/19 09:12:18;;;;;;;;;7.67;7.67;;;;;36.97;23.76;100473.41;4897977;29;45482;-73
2022/06/19 09:14:58;;;;;;;;;7.00;7.00;;;;;37.14;22.94;100498.56;4899167;29;45539;-75
2022/06/19 09:17:30;;;;;;;;;9.33;7.00;;;;;37.25;23.58;100521.38;4898853;28;45335;-74
2022/06/19 09:20:19;;;;;;;;;9.00;8.00;;;;;37.63;23.42;100557.38;4899134;29;45518;-75
2022/06/19 09:23:21;;;;;;;;;10.33;8.00;;;;;37.80;22.24;100561.28;4884096;29;46444;-78
2022/06/19 09:25:57;;;;;;;;;7.33;7.33;;;;;37.95;22.68;100589.34;4885881;28;45439;-82
2022/06/19 09:28:42;;;;;;;;;9.33;9.00;;;;;37.84;22.73;100562.72;4880495;29;45414;-78
2022/06/19 09:31:14;;;;;;;;;10.00;8.33;;;;;37.81;22.45;100557.50;4884325;29;45488;-79
2022/06/19 09:33:55;;;;;;;;;10.00;9.00;;;;;37.90;22.43;100569.53;4896684;29;45416;-80
2022/06/19 09:36:28;;;;;;;;;11.00;8.67;;;;;38.26;22.59;100592.69;4898756;29;45314;-80
2022/06/19 09:39:13;;;;;;;;;11.00;9.67;;;;;38.38;22.60;100589.69;4898771;28;45512;-80
2022/06/19 09:41:46;;;;;;;;;12.33;9.33;;;;;38.18;21.93;100584.22;4898596;28;45335;-81
2022/06/19 09:44:38;;;;;;;;;10.67;9.33;;;;;37.90;22.42;100589.78;4898515;29;45526;-78
2022/06/19 09:47:22;;;;;;;;;9.67;9.67;;;;;37.67;22.22;100580.97;4912826;28;45948;-73
2022/06/19 09:50:07;;;;;;;;;9.67;9.67;;;;;37.74;23.03;100572.94;4898803;28;45505;-69
2022/06/19 09:52:55;;;;;;;;;14.67;14.67;;;;;38.03;22.50;100574.69;4896021;28;45371;-78
2022/06/19 09:55:34;;;;;;;;;12.00;11.33;;;;;37.45;22.95;100550.91;4904470;28;46240;-79
2022/06/19 09:58:17;;;;;;;;;13.67;12.33;;;;;37.54;23.12;100561.94;4898136;28;45532;-72
2022/06/19 10:00:46;;;;;;;;;14.33;11.67;;;;;37.49;22.68;100569.81;4898995;28;45394;-74
2022/06/19 10:03:18;;;;;;;;;13.33;12.00;;;;;37.41;22.66;100584.44;4890835;29;45445;-79
2022/06/19 10:05:50;;;;;;;;;12.33;11.67;;;;;37.54;23.08;100588.72;4903191;28;46583;-80
2022/06/19 10:08:30;;;;;;;;;15.00;11.00;;;;;37.67;22.42;100589.28;4890888;28;45829;-79
2022/06/19 10:11:08;;;;;;;;;13.33;13.00;;;;;37.71;22.76;100590.72;4880858;29;46128;-74
2022/06/19 10:13:43;;;;;;;;;14.33;13.67;;;;;37.84;22.85;100564.63;4885388;29;45433;-78
2022/06/19 10:16:25;;;;;;;;;18.67;18.33;;;;;38.14;22.41;100580.03;4885781;29;45620;-73
2022/06/19 10:18:55;;;;;;;;;17.00;14.67;;;;;38.28;22.34;100583.34;4885207;29;45509;-73
2022/06/19 10:24:44;;;;;;;;;17.67;16.00;;;;;38.07;22.74;100565.94;4886567;29;45870;-74
2022/06/19 10:27:49;;;;;;;;;22.67;21.33;;;;;38.23;22.00;100569.97;4885797;29;46629;-73
2022/06/19 10:30:18;;;;;;;;;20.00;18.00;;;;;38.14;21.91;100527.41;4881157;29;45485;-78
2022/06/19 10:33:05;;;;;;;;;16.33;15.67;;;;;38.23;22.14;100548.66;4899263;28;45624;-77
2022/06/19 10:35:52;;;;;;;;;19.00;14.33;;;;;38.22;22.65;100546.06;4882366;29;45517;-75
2022/06/19 10:38:42;;;;;;;;;21.00;20.00;;;;;38.44;22.10;100540.06;4885687;29;45712;-76
2022/06/19 10:44:12;;;;;;;;;17.00;16.00;;;;;38.49;21.93;100528.47;4887882;29;45477;-76
2022/06/19 10:46:40;;;;;;;;;20.00;19.00;;;;;38.35;22.01;100524.34;4883704;29;45511;-81
2022/06/19 10:49:28;;;;;;;;;20.00;17.67;;;;;38.26;22.25;100536.41;4886157;29;46623;-82
2022/06/19 10:52:17;;;;;;;;;21.00;19.00;;;;;38.63;21.88;100534.50;4881784;29;45459;-80
2022/06/19 10:55:17;;;;;;;;;22.00;17.33;;;;;38.58;22.54;100518.31;4879586;28;45513;-72
2022/06/19 10:57:50;;;;;;;;;20.33;18.67;;;;;38.93;21.74;100509.13;4888450;28;45491;-72
2022/06/19 11:00:15;;;;;;;;;21.00;19.67;;;;;39.09;21.37;100529.69;4887434;29;46540;-72
2022/06/19 11:05:53;;;;;;;;;17.67;17.67;;;;;39.07;21.61;100524.31;4884496;29;45537;-78
2022/06/19 11:08:22;;;;;;;;;19.00;17.33;;;;;38.65;22.07;100530.56;4886786;28;45884;-78
2022/06/19 11:10:54;;;;;;;;;18.00;17.00;;;;;38.71;21.94;100529.06;4888563;29;45697;-77
2022/06/19 11:13:20;;;;;;;;;21.33;19.00;;;;;38.61;22.47;100507.81;4892804;29;45414;-78
2022/06/19 11:16:00;;;;;;;;;17.33;17.33;;;;;38.63;22.69;100515.09;4903136;28;45425;-78
2022/06/19 11:18:26;;;;;;;;;19.00;16.67;;;;;38.22;22.19;100480.41;4892475;29;45490;-78
2022/06/19 11:21:13;;;;;;;;;14.67;14.67;;;;;38.20;22.88;100503.72;4893224;28;45588;-78
2022/06/19 11:23:47;;;;;;;;;19.67;18.33;;;;;38.39;22.84;100527.69;4901171;28;46050;-78
2022/06/19 11:26:27;;;;;;;;;17.33;15.67;;;;;37.99;23.48;100506.81;4892956;29;45435;-77
2022/06/19 11:29:00;;;;;;;;;15.67;15.67;;;;;37.85;23.74;100524.81;4911109;28;45656;-79
2022/06/19 11:31:31;;;;;;;;;16.33;15.33;;;;;37.95;22.86;100535.81;4914458;28;46197;-78
2022/06/19 11:34:01;;;;;;;;;17.33;16.33;;;;;37.85;23.35;100519.28;4899941;29;45521;-78
2022/06/19 11:36:39;;;;;;;;;20.00;18.33;;;;;37.47;23.88;100523.94;4900335;29;45388;-78
2022/06/19 11:39:37;;;;;;;;;15.33;15.33;;;;;37.52;23.98;100516.06;4900573;28;45544;-78
2022/06/19 11:42:29;;;;;;;;;15.33;15.33;;;;;37.54;23.69;100520.44;4914191;28;46552;-78
2022/06/19 11:45:01;;;;;;;;;18.00;18.00;;;;;37.68;23.78;100527.38;4900627;28;46260;-80
2022/06/19 11:47:35;;;;;;;;;19.33;18.67;;;;;37.59;23.68;100518.06;4914267;28;45470;-80
2022/06/19 11:50:10;;;;;;;;;17.33;14.33;;;;;37.42;23.52;100532.72;4903215;28;45407;-80
2022/06/19 11:52:37;;;;;;;;;14.33;14.33;;;;;37.18;23.68;100520.22;4908650;28;46135;-80
2022/06/19 11:55:12;;;;;;;;;17.67;16.33;;;;;37.18;23.92;100514.69;4909098;28;45438;-81
2022/06/19 11:57:38;;;;;;;;;18.00;17.00;;;;;37.15;23.87;100516.91;4915273;28;45532;-80
2022/06/19 12:00:05;;;;;;;;;18.67;16.33;;;;;36.88;23.52;100480.72;4925771;28;45534;-80
2022/06/19 12:02:38;;;;;;;;;20.33;18.33;;;;;37.12;23.15;100486.75;4915266;28;46494;-81
2022/06/19 12:05:07;;;;;;;;;18.00;15.00;;;;;37.51;23.61;100498.59;4919021;28;45598;-80
2022/06/19 12:07:37;;;;;;;;;15.33;12.00;;;;;37.13;23.05;100505.09;4918113;28;45585;-81
2022/06/19 12:10:04;;;;;;;;;19.33;15.67;;;;;36.80;23.76;100501.84;4917419;28;45509;-81
2022/06/19 12:12:33;;;;;;;;;18.00;15.00;;;;;36.75;23.29;100485.66;4913960;28;46170;-81
2022/06/19 12:15:00;;;;;;;;;15.33;13.67;;;;;37.14;23.45;100496.66;4890640;28;45458;-76
2022/06/19 12:17:31;;;;;;;;;16.33;15.33;;;;;36.88;23.20;100485.41;4880854;29;45458;-79
2022/06/19 12:20:07;;;;;;;;;14.00;13.33;;;;;36.64;23.54;100477.53;4896820;29;45314;-79
2022/06/19 12:22:44;;;;;;;;;16.00;13.00;;;;;36.57;24.19;100474.50;4911065;28;47132;-79
2022/06/19 12:25:22;;;;;;;;;15.67;14.00;;;;;36.87;23.56;100456.84;4911307;28;45347;-78
2022/06/19 12:27:56;;;;;;;;;13.33;13.33;;;;;37.38;23.69;100439.97;4911378;28;45570;-78
2022/06/19 12:30:33;;;;;;;;;17.33;13.67;;;;;37.51;23.27;100428.53;4911423;28;45391;-78
2022/06/19 12:33:04;;;;;;;;;13.50;13.50;;;;;37.70;23.17;100453.31;4880832;29;46448;-78
2022/06/19 12:35:36;;;;;;;;;15.00;13.33;;;;;37.85;22.73;100453.72;4880700;29;45432;-78
2022/06/19 12:38:16;;;;;;;;;15.33;13.00;;;;;38.07;22.43;100452.38;4881193;29;45458;-78
2022/06/19 12:40:58;;;;;;;;;10.00;10.00;;;;;37.64;22.68;100433.69;4880706;29;45630;-78
2022/06/19 12:43:49;;;;;;;;;16.67;13.67;;;;;37.97;22.15;100470.97;4880825;29;46571;-78
2022/06/19 12:46:28;;;;;;;;;12.67;12.00;;;;;37.81;22.27;100446.75;4879737;29;45407;-78
2022/06/19 12:49:05;;;;;;;;;14.00;14.00;;;;;38.13;22.50;100452.75;4880476;29;45479;-78
2022/06/19 12:51:47;;;;;;;;;13.00;11.00;;;;;38.24;22.35;100452.56;4881069;29;45613;-78
2022/06/19 12:54:47;;;;;;;;;11.33;11.00;;;;;38.20;21.90;100452.00;4894996;29;47036;-78
2022/06/19 12:57:27;;;;;;;;;14.33;14.33;;;;;38.51;21.69;100445.16;4880915;29;45392;-78
2022/06/19 13:00:17;;;;;;;;;14.33;11.00;;;;;38.65;22.29;100433.53;4881029;29;45448;-79
2022/06/19 13:02:55;;;;;;;;;12.33;11.33;;;;;39.25;21.28;100449.34;4880702;29;45562;-78
2022/06/19 13:05:44;;;;;;;;;14.00;11.00;;;;;39.43;20.87;100457.59;4880743;29;45549;-78
2022/06/19 13:08:39;;;;;;;;;10.00;10.00;;;;;39.32;21.05;100451.47;4880356;29;45408;-79
2022/06/19 13:11:41;;;;;;;;;10.33;9.33;;;;;39.81;21.26;100448.91;4880124;29;45503;-78
2022/06/19 13:14:44;;;;;;;;;10.33;10.33;;;;;40.05;20.71;100436.16;4880576;29;45483;-78
2022/06/19 13:17:22;;;;;;;;;7.33;7.33;;;;;40.10;21.25;100442.91;4880289;29;45417;-79
2022/06/19 13:19:52;;;;;;;;;11.67;10.00;;;;;40.13;20.69;100441.72;4890749;29;45548;-78
2022/06/19 13:22:36;;;;;;;;;15.00;15.00;;;;;39.85;20.45;100453.09;4913899;28;45414;-78
2022/06/19 13:25:25;;;;;;;;;9.00;8.33;;;;;39.80;20.55;100441.59;4899348;29;45406;-78
2022/06/19 13:28:13;;;;;;;;;9.67;8.67;;;;;40.03;20.69;100429.84;4898851;29;45757;-78
2022/06/19 13:30:58;;;;;;;;;10.00;9.00;;;;;40.15;20.43;100397.94;4898282;28;45486;-78
2022/06/19 13:33:35;;;;;;;;;9.67;9.67;;;;;40.49;20.35;100429.41;4898822;29;45536;-78
2022/06/19 13:36:16;;;;;;;;;8.00;7.67;;;;;40.50;19.99;100414.47;4899255;28;45336;-79
2022/06/19 13:38:47;;;;;;;;;14.00;10.00;;;;;40.71;19.84;100425.91;4898819;29;45518;-78
2022/06/19 13:41:22;;;;;;;;;8.67;8.67;;;;;40.46;20.49;100430.59;4913567;28;45440;-78
2022/06/19 13:44:17;;;;;;;;;12.67;9.67;;;;;40.70;20.20;100410.25;4898938;28;45374;-78
2022/06/19 13:46:55;;;;;;;;;9.67;9.00;;;;;40.85;19.92;100404.84;4898703;28;45363;-78
2022/06/19 13:49:33;;;;;;;;;10.00;7.00;;;;;41.09;19.84;100408.63;4899005;29;46648;-78
2022/06/19 13:52:24;;;;;;;;;13.00;9.67;;;;;40.95;19.95;100397.19;4898515;28;45457;-79
2022/06/19 13:54:55;;;;;;;;;9.67;9.67;;;;;41.00;19.75;100398.56;4898893;28;45413;-79
2022/06/19 13:57:24;;;;;;;;;12.00;10.00;;;;;40.85;20.28;100393.72;4898996;28;45386;-78
2022/06/19 14:00:37;;;;;;;;;8.67;8.67;;;;;40.84;20.29;100385.56;4898472;29;45968;-78
2022/06/19 14:03:23;;;;;;;;;11.00;11.00;;;;;41.04;19.98;100386.03;4898289;29;45493;-78
2022/06/19 14:05:54;;;;;;;;;9.67;9.33;;;;;40.63;20.20;100373.09;4898764;29;45418;-78
2022/06/19 14:08:21;;;;;;;;;10.00;10.00;;;;;40.72;20.15;100380.38;4898866;29;45544;-78
2022/06/19 14:10:48;;;;;;;;;12.00;9.00;;;;;40.78;20.04;100382.44;4898327;29;46244;-78
2022/06/19 14:13:45;;;;;;;;;11.33;10.67;;;;;41.23;20.09;100376.41;4898459;29;45378;-78
2022/06/19 14:16:46;;;;;;;;;12.00;10.67;;;;;41.13;20.21;100373.84;4898533;28;45391;-78
2022/06/19 14:19:23;;;;;;;;;10.67;8.00;;;;;41.37;20.08;100370.09;4913141;28;45354;-78
2022/06/19 14:22:00;;;;;;;;;11.00;10.00;;;;;41.29;19.98;100345.91;4898368;28;46534;-78
2022/06/19 14:25:03;;;;;;;;;12.33;10.67;;;;;41.66;19.49;100372.19;4913033;28;45374;-78
2022/06/19 14:27:45;;;;;;;;;13.00;10.33;;;;;41.92;19.65;100350.63;4898768;28;45312;-78
2022/06/19 14:30:20;;;;;;;;;12.00;11.33;;;;;42.24;19.33;100373.69;4898171;29;45379;-78
2022/06/19 14:32:48;;;;;;;;;15.33;13.00;;;;;42.28;18.91;100372.28;4898171;28;46448;-78
2022/06/19 14:35:18;;;;;;;;;12.00;12.00;;;;;42.20;18.95;100370.44;4898213;29;45311;-78
2022/06/19 14:37:53;;;;;;;;;13.00;12.00;;;;;41.71;19.11;100359.63;4898468;28;45748;-78
2022/06/19 14:40:21;;;;;;;;;12.67;12.67;;;;;41.59;19.17;100356.38;4898449;28;45758;-78
2022/06/19 14:43:01;;;;;;;;;12.67;12.67;;;;;41.92;19.82;100359.84;4900927;29;46298;-78
2022/06/19 14:45:45;;;;;;;;;12.00;12.00;;;;;41.85;19.13;100366.34;4915617;28;45460;-78
2022/06/19 14:48:13;;;;;;;;;13.67;13.33;;;;;41.95;19.63;100373.38;4901642;28;45405;-78
2022/06/19 14:51:07;;;;;;;;;13.33;12.67;;;;;41.88;18.96;100374.34;4916200;28;45516;-78
2022/06/19 14:53:39;;;;;;;;;12.00;12.00;;;;;41.78;19.50;100375.44;4901218;29;46469;-78
2022/06/19 14:56:26;;;;;;;;;10.67;9.67;;;;;42.08;19.72;100366.31;4901376;28;45435;-78
2022/06/19 14:58:54;;;;;;;;;12.00;12.00;;;;;41.86;19.30;100345.78;4901453;28;45439;-78
2022/06/19 15:01:19;;;;;;;;;15.33;13.00;;;;;42.17;19.49;100368.00;4901304;29;45526;-78
2022/06/19 15:03:55;;;;;;;;;18.33;15.00;;;;;42.09;19.39;100352.19;4915764;28;47256;-79
2022/06/19 15:06:38;;;;;;;;;15.67;14.00;;;;;42.46;19.09;100341.25;4901124;28;45378;-80
2022/06/19 15:09:07;;;;;;;;;14.00;12.67;;;;;42.89;18.66;100332.28;4888085;29;45465;-80
2022/06/19 15:11:39;;;;;;;;;14.00;12.67;;;;;43.25;18.88;100332.34;4899839;29;45303;-80
2022/06/19 15:14:26;;;;;;;;;13.33;13.33;;;;;43.49;18.54;100327.47;4886009;29;45412;-80
2022/06/19 15:17:04;;;;;;;;;11.33;10.33;;;;;43.69;18.02;100328.56;4881949;29;45584;-80
2022/06/19 15:19:44;;;;;;;;;16.00;12.67;;;;;43.80;18.06;100329.09;4890650;29;45482;-80
2022/06/19 15:22:27;;;;;;;;;13.00;13.00;;;;;43.99;18.16;100333.19;4900546;28;45598;-80
2022/06/19 15:24:53;;;;;;;;;14.00;13.67;;;;;44.12;17.75;100332.44;4911890;28;48428;-80
2022/06/19 15:27:24;;;;;;;;;12.67;12.00;;;;;43.88;17.21;100326.19;4913288;28;45747;-80
2022/06/19 15:29:55;;;;;;;;;12.67;12.67;;;;;43.92;17.99;100332.25;4899999;28;45601;-78
2022/06/19 15:32:23;;;;;;;;;13.00;13.00;;;;;43.99;17.34;100330.38;4900513;29;45296;-80
2022/06/19 15:34:53;;;;;;;;;17.00;16.00;;;;;44.35;17.24;100335.88;4898597;28;47654;-80
2022/06/19 15:37:37;;;;;;;;;13.67;12.33;;;;;44.95;17.38;100340.16;4900741;29;45464;-79
2022/06/19 15:40:24;;;;;;;;;12.67;12.67;;;;;47.74;14.85;100334.72;4900490;29;45378;-78
2022/06/19 15:43:17;;;;;;;;;15.00;15.00;;;;;49.11;13.30;100333.00;4899100;29;45522;-79
2022/06/19 15:45:51;;;;;;;;;18.67;13.00;;;;;50.75;12.58;100318.72;4880327;29;48146;-79
2022/06/19 15:48:22;;;;;;;;;15.67;14.67;;;;;51.66;11.67;100320.00;4892037;29;45562;-79
2022/06/19 15:50:53;;;;;;;;;14.33;13.00;;;;;52.97;10.81;100322.66;4900074;29;45462;-79
2022/06/19 15:53:22;;;;;;;;;12.67;12.67;;;;;53.24;10.62;100314.25;4895144;29;45505;-78
2022/06/19 15:55:59;;;;;;;;;16.00;14.00;;;;;54.25;10.23;100297.63;4881416;29;45370;-79
2022/06/19 15:58:34;;;;;;;;;14.67;12.00;;;;;55.40;9.83;100311.28;4901650;28;45499;-80
2022/06/19 16:01:02;;;;;;;;;12.00;11.00;;;;;55.99;10.25;100307.09;4895817;29;45315;-80
2022/06/19 16:03:38;;;;;;;;;12.00;11.00;;;;;55.95;9.57;100303.94;4900690;29;45513;-79
2022/06/19 16:06:09;;;;;;;;;13.67;12.67;;;;;56.26;8.48;100301.06;4900162;28;45272;-80
2022/06/19 16:08:39;;;;;;;;;11.00;11.00;;;;;56.75;9.08;100301.56;4900019;28;45463;-80
2022/06/19 16:11:05;;;;;;;;;12.00;12.00;;;;;57.17;8.14;100315.31;4900373;28;45514;-80
2022/06/19 16:13:35;;;;;;;;;11.67;10.33;;;;;57.37;9.13;100310.66;4899067;28;45496;-81
2022/06/19 16:16:08;;;;;;;;;13.67;12.00;;;;;57.76;8.23;100326.94;4899733;28;46401;-81
2022/06/19 16:18:34;;;;;;;;;12.00;12.00;;;;;57.65;9.01;100316.78;4899735;29;45387;-81
2022/06/19 16:21:06;;;;;;;;;15.00;12.33;;;;;57.19;7.99;100317.88;4899926;29;45396;-81
2022/06/19 16:23:45;;;;;;;;;11.67;10.67;;;;;57.00;8.18;100304.31;4899894;29;45521;-86
2022/06/19 16:26:38;;;;;;;;;12.67;12.67;;;;;56.59;8.50;100318.69;4899152;28;45618;-82
2022/06/19 16:29:17;;;;;;;;;12.00;12.00;;;;;56.14;9.04;100329.84;4899556;28;45488;-77
2022/06/19 16:31:57;;;;;;;;;11.00;11.00;;;;;56.51;9.27;100325.81;4898807;29;45510;-78
2022/06/19 16:34:25;;;;;;;;;15.33;11.33;;;;;55.54;9.28;100318.13;4891111;28;45350;-81
2022/06/19 16:45:33;;;;;;;;;14.00;13.33;;;;;49.47;12.93;100329.50;4899666;29;45402;-78
2022/06/19 16:48:22;;;;;;;;;12.00;12.00;;;;;48.76;13.71;100325.16;4899492;28;46103;-77
2022/06/19 16:50:51;;;;;;;;;18.00;15.00;;;;;47.82;14.14;100329.91;4898446;28;45442;-75
2022/06/19 16:53:19;;;;;;;;;13.67;13.67;;;;;46.90;15.28;100316.94;4890831;28;46072;-76
2022/06/19 16:55:47;;;;;;;;;15.67;14.33;;;;;46.54;14.95;100305.16;4882296;29;45466;-76
2022/06/19 16:58:18;;;;;;;;;16.00;14.33;;;;;45.91;15.24;100314.03;4886280;29;46350;-76
2022/06/19 17:00:54;;;;;;;;;14.00;14.00;;;;;45.85;16.00;100310.13;4900558;28;46091;-76
2022/06/19 17:03:32;;;;;;;;;16.33;16.00;;;;;45.69;15.88;100293.69;4878193;29;45590;-76
2022/06/19 17:06:02;;;;;;;;;16.00;16.00;;;;;45.42;16.12;100304.81;4880817;29;45620;-75
2022/06/19 17:08:42;;;;;;;;;16.33;15.33;;;;;45.15;16.37;100307.56;4893266;28;45553;-74
2022/06/19 17:11:23;;;;;;;;;14.67;14.67;;;;;45.14;16.29;100314.22;4887599;29;45497;-75
2022/06/19 17:13:58;;;;;;;;;19.67;19.33;;;;;44.58;16.82;100306.78;4891387;28;45501;-74
2022/06/19 17:16:24;;;;;;;;;16.00;15.33;;;;;44.24;16.60;100302.00;4881705;29;45407;-75
2022/06/19 17:18:53;;;;;;;;;16.00;16.00;;;;;44.35;17.11;100324.69;4890649;28;46279;-75
2022/06/19 17:21:20;;;;;;;;;18.00;16.33;;;;;44.24;16.92;100330.81;4905114;28;45609;-75
2022/06/19 17:24:07;;;;;;;;;18.33;17.33;;;;;43.99;17.22;100325.66;4893289;29;45421;-75
2022/06/19 17:26:33;;;;;;;;;19.67;18.33;;;;;43.63;18.18;100314.53;4885200;28;45554;-75
2022/06/19 17:28:59;;;;;;;;;18.67;16.67;;;;;43.38;17.86;100314.88;4885600;29;46625;-75
2022/06/19 17:31:28;;;;;;;;;19.00;18.00;;;;;43.69;17.75;100331.34;4893203;28;45436;-75
2022/06/19 17:33:55;;;;;;;;;17.33;16.33;;;;;43.69;18.07;100350.06;4895497;28;45605;-74
2022/06/19 17:36:33;;;;;;;;;19.00;18.00;;;;;43.61;18.26;100345.44;4892292;28;45472;-75
2022/06/19 17:39:01;;;;;;;;;16.00;16.00;;;;;43.02;18.16;100324.06;4884826;29;45547;-75
2022/06/19 17:41:30;;;;;;;;;20.67;18.33;;;;;42.71;18.16;100318.72;4883558;29;45406;-74
2022/06/19 17:43:56;;;;;;;;;21.00;19.00;;;;;42.26;19.07;100322.28;4887735;29;45498;-75
2022/06/19 17:46:30;;;;;;;;;16.67;16.67;;;;;42.53;18.78;100322.69;4890105;28;45431;-75